createdAt,value
2022-12-15T00:00:25.648Z,4.00
2022-12-15T00:03:33.029Z,4.07
2022-12-15T00:06:20.826Z,4.04
2022-12-15T00:09:12.753Z,4.01
2022-12-15T00:12:01.261Z,4.07
2022-12-15T00:14:48.596Z,4.10
2022-12-15T00:17:35.563Z,4.11
2022-12-15T00:20:22.914Z,4.16
2022-12-15T00:23:09.905Z,4.16
2022-12-15T00:25:56.867Z,4.13
2022-12-15T00:28:44.215Z,4.13
2022-12-15T00:31:31.211Z,4.18
2022-12-15T00:34:18.002Z,4.16
2022-12-15T00:37:04.932Z,4.21
2022-12-15T00:39:33.650Z,4.24
2022-12-15T00:42:02.211Z,4.19
2022-12-15T00:44:30.916Z,4.27
2022-12-15T00:46:59.572Z,4.27
2022-12-15T00:49:48.893Z,4.31
2022-12-15T00:52:37.411Z,4.30
2022-12-15T00:55:24.973Z,4.34
2022-12-15T00:58:13.350Z,4.33
2022-12-15T01:01:00.209Z,4.38
2022-12-15T01:03:47.894Z,4.38
2022-12-15T01:06:38.402Z,4.41
2022-12-15T01:09:28.306Z,4.45
2022-12-15T01:12:15.314Z,4.42
2022-12-15T01:15:02.190Z,4.46
2022-12-15T01:17:49.149Z,4.46
2022-12-15T01:20:20.900Z,4.48
2022-12-15T01:22:56.361Z,4.51
2022-12-15T01:25:26.640Z,4.53
2022-12-15T01:28:00.302Z,4.60
2022-12-15T01:30:29.343Z,4.64
2022-12-15T01:32:58.134Z,4.65
2022-12-15T01:35:28.122Z,4.68
2022-12-15T01:37:56.791Z,4.68
2022-12-15T01:40:47.330Z,4.69
2022-12-15T01:43:25.262Z,4.70
2022-12-15T01:45:56.479Z,4.73
2022-12-15T01:48:49.475Z,4.75
2022-12-15T01:51:18.234Z,4.75
2022-12-15T01:54:18.773Z,4.75
2022-12-15T01:56:54.126Z,4.73
2022-12-15T01:59:32.317Z,4.73
2022-12-15T02:02:02.187Z,4.76
2022-12-15T02:04:32.669Z,4.75
2022-12-15T02:07:01.281Z,4.75
2022-12-15T02:09:30.789Z,4.75
2022-12-15T02:12:11.021Z,4.73
2022-12-15T02:15:11.051Z,4.71
2022-12-15T02:17:52.390Z,4.77
2022-12-15T02:20:54.971Z,4.77
2022-12-15T02:24:03.214Z,4.75
2022-12-15T02:27:05.196Z,4.73
2022-12-15T02:29:39.744Z,4.77
2022-12-15T02:32:25.523Z,4.78
2022-12-15T02:35:15.622Z,4.72
2022-12-15T02:37:45.436Z,4.77
2022-12-15T02:40:19.025Z,4.84
2022-12-15T02:42:54.704Z,4.82
2022-12-15T02:46:01.723Z,4.89
2022-12-15T02:48:36.228Z,4.90
2022-12-15T02:52:00.663Z,4.87
2022-12-15T02:54:39.117Z,4.88
2022-12-15T02:57:49.781Z,4.89
2022-12-15T03:00:19.219Z,4.90
2022-12-15T03:02:55.765Z,4.93
2022-12-15T03:05:26.082Z,4.93
2022-12-15T03:07:55.079Z,4.97
2022-12-15T03:10:25.944Z,4.97
2022-12-15T03:12:59.043Z,4.97
2022-12-15T03:15:31.808Z,4.93
2022-12-15T03:18:04.039Z,4.98
2022-12-15T03:20:32.616Z,4.95
2022-12-15T03:23:02.152Z,4.96
2022-12-15T03:25:30.856Z,4.97
2022-12-15T03:27:59.470Z,5.01
2022-12-15T03:30:28.060Z,5.00
2022-12-15T03:32:56.579Z,5.00
2022-12-15T03:35:25.174Z,4.97
2022-12-15T03:37:53.754Z,5.06
2022-12-15T03:40:22.649Z,5.09
2022-12-15T03:42:51.384Z,5.09
2022-12-15T03:45:27.084Z,5.03
2022-12-15T03:47:57.727Z,5.08
2022-12-15T03:50:30.106Z,5.08
2022-12-15T03:53:04.367Z,5.11
2022-12-15T03:55:33.023Z,5.12
2022-12-15T03:58:01.892Z,5.15
2022-12-15T04:00:31.365Z,5.16
2022-12-15T04:03:00.149Z,5.20
2022-12-15T04:05:34.190Z,5.22
2022-12-15T04:11:16.743Z,5.38
2022-12-15T04:13:45.944Z,5.37
2022-12-15T04:16:19.542Z,5.39
2022-12-15T04:19:11.342Z,5.36
2022-12-15T04:21:39.872Z,5.38
2022-12-15T04:24:27.308Z,5.39
2022-12-15T04:27:14.600Z,5.36
2022-12-15T04:30:02.652Z,5.42
2022-12-15T04:32:51.303Z,5.41
2022-12-15T04:35:49.953Z,5.46
2022-12-15T04:38:49.955Z,5.45
2022-12-15T04:41:39.965Z,5.43
2022-12-15T04:44:29.486Z,5.43
2022-12-15T04:47:17.873Z,5.41
2022-12-15T04:50:08.944Z,5.44
2022-12-15T04:52:57.805Z,5.45
2022-12-15T04:55:44.990Z,5.50
2022-12-15T04:58:32.294Z,5.44
2022-12-15T05:01:19.125Z,5.44
2022-12-15T05:04:06.156Z,5.50
2022-12-15T05:06:53.925Z,5.47
2022-12-15T05:14:16.194Z,5.49
2022-12-15T05:18:02.343Z,5.47
2022-12-15T05:21:36.494Z,5.49
2022-12-15T05:24:24.334Z,5.51
2022-12-15T05:37:07.643Z,5.55
2022-12-15T05:39:37.053Z,5.53
2022-12-15T05:42:11.721Z,5.55
2022-12-15T05:44:41.557Z,5.56
2022-12-15T05:47:11.802Z,5.56
2022-12-15T05:49:40.579Z,5.61
2022-12-15T05:52:10.563Z,5.63
2022-12-15T05:54:39.357Z,5.64
2022-12-15T05:57:09.524Z,5.66
2022-12-15T05:59:39.631Z,5.68
2022-12-15T06:03:17.566Z,5.64
2022-12-15T06:05:47.620Z,5.66
2022-12-15T06:11:47.098Z,5.68
2022-12-15T06:14:15.746Z,5.72
2022-12-15T06:16:50.974Z,5.70
2022-12-15T06:19:22.047Z,5.71
2022-12-15T06:21:51.374Z,5.72
2022-12-15T06:24:20.121Z,5.76
2022-12-15T06:26:49.794Z,5.75
2022-12-15T06:29:19.286Z,5.77
2022-12-15T06:31:48.227Z,5.77
2022-12-15T06:34:17.678Z,5.74
2022-12-15T06:36:46.588Z,5.74
2022-12-15T06:39:16.753Z,5.76
2022-12-15T06:41:45.685Z,5.79
2022-12-15T06:44:18.853Z,5.81
2022-12-15T06:46:49.076Z,5.80
2022-12-15T06:50:20.058Z,5.85
2022-12-15T06:53:27.168Z,5.85
2022-12-15T07:28:07.206Z,6.32
2022-12-15T07:56:39.137Z,6.67
2022-12-15T08:59:02.250Z,7.74
2022-12-15T09:01:33.241Z,7.75
2022-12-15T09:04:04.412Z,7.82
2022-12-15T09:06:37.017Z,7.91
2022-12-15T09:09:09.344Z,8.02
2022-12-15T09:11:38.263Z,8.02
2022-12-15T09:14:07.322Z,8.08
2022-12-15T09:16:36.063Z,8.12
2022-12-15T09:19:05.024Z,8.07
2022-12-15T09:21:33.664Z,7.98
2022-12-15T09:24:04.246Z,7.96
2022-12-15T09:26:34.940Z,7.89
2022-12-15T09:29:03.769Z,7.86
2022-12-15T09:31:37.503Z,7.80
2022-12-15T09:34:06.463Z,7.79
2022-12-15T09:36:35.163Z,7.84
2022-12-15T09:39:03.920Z,7.90
2022-12-15T09:41:36.608Z,7.94
2022-12-15T09:44:16.583Z,7.97
2022-12-15T09:46:50.243Z,7.95
2022-12-15T09:49:53.752Z,7.97
2022-12-15T09:52:40.709Z,7.95
2022-12-15T09:55:25.798Z,7.95
2022-12-15T09:58:25.135Z,7.90
2022-12-15T10:01:45.957Z,7.79
2022-12-15T10:04:23.584Z,7.79
2022-12-15T10:07:01.123Z,7.80
2022-12-15T10:09:32.635Z,7.88
2022-12-15T10:12:11.624Z,8.02
2022-12-15T10:15:01.473Z,8.15
2022-12-15T10:17:51.032Z,8.36
2022-12-15T10:20:21.661Z,8.43
2022-12-15T10:22:51.634Z,8.56
2022-12-15T10:29:21.299Z,8.79
2022-12-15T10:32:17.060Z,8.91
2022-12-15T10:34:46.462Z,8.98
2022-12-15T10:37:20.397Z,9.04
2022-12-15T10:39:51.272Z,8.97
2022-12-15T10:42:26.693Z,9.11
2022-12-15T10:44:59.102Z,9.15
2022-12-15T10:47:31.827Z,9.07
2022-12-15T10:50:25.091Z,9.06
2022-12-15T10:52:54.337Z,8.95
2022-12-15T10:55:43.940Z,8.91
2022-12-15T10:58:23.407Z,9.00
2022-12-15T11:01:24.440Z,9.05
2022-12-15T11:03:55.284Z,9.06
2022-12-15T11:06:31.578Z,9.17
2022-12-15T11:09:35.037Z,9.10
2022-12-15T11:12:43.094Z,9.14
2022-12-15T11:15:37.299Z,9.19
2022-12-15T11:18:59.503Z,9.22
2022-12-15T11:24:54.710Z,9.22
2022-12-15T11:27:29.058Z,9.12
2022-12-15T11:30:22.422Z,9.13
2022-12-15T11:32:58.292Z,8.97
2022-12-15T11:36:09.856Z,8.89
2022-12-15T11:38:52.574Z,8.85
2022-12-15T11:42:13.086Z,8.79
2022-12-15T11:45:21.651Z,8.77
2022-12-15T11:48:19.189Z,8.85
2022-12-15T11:51:17.965Z,8.95
2022-12-15T11:54:15.100Z,9.00
2022-12-15T11:57:00.004Z,9.00
2022-12-15T11:59:46.875Z,8.95
2022-12-15T12:02:34.024Z,8.91
2022-12-15T12:05:38.486Z,8.84
2022-12-15T12:08:26.095Z,8.89
2022-12-15T12:11:45.342Z,8.93
2022-12-15T12:14:36.632Z,8.98
2022-12-15T12:17:35.744Z,9.01
2022-12-15T12:20:29.994Z,9.06
2022-12-15T12:23:13.876Z,9.09
2022-12-15T12:26:24.166Z,9.12
2022-12-15T12:29:29.170Z,9.13
2022-12-15T12:32:05.163Z,9.11
2022-12-15T12:35:31.089Z,9.11
2022-12-15T12:38:03.047Z,9.07
2022-12-15T12:40:40.353Z,9.00
2022-12-15T12:43:14.017Z,8.94
2022-12-15T12:45:58.529Z,8.88
2022-12-15T12:49:13.242Z,8.83
2022-12-15T12:51:52.604Z,8.78
2022-12-15T12:54:40.250Z,8.80
2022-12-15T12:57:12.279Z,8.80
2022-12-15T12:59:59.349Z,8.81
2022-12-15T13:05:44.823Z,8.79
2022-12-15T13:08:14.080Z,8.76
2022-12-15T13:10:47.334Z,8.74
2022-12-15T13:13:19.185Z,8.74
2022-12-15T13:16:06.154Z,8.68
2022-12-15T13:19:08.685Z,8.65
2022-12-15T13:21:48.842Z,8.64
2022-12-15T13:24:24.913Z,8.62
2022-12-15T13:27:03.525Z,8.58
2022-12-15T13:29:35.365Z,8.51
2022-12-15T13:32:04.378Z,8.43
2022-12-15T13:34:41.396Z,8.35
2022-12-15T13:37:56.020Z,8.25
2022-12-15T13:40:36.748Z,8.15
2022-12-15T13:43:05.272Z,8.06
2022-12-15T13:45:50.664Z,7.99
2022-12-15T13:49:01.704Z,7.94
2022-12-15T13:51:44.248Z,7.87
2022-12-15T13:54:31.557Z,7.83
2022-12-15T13:57:15.311Z,7.77
2022-12-15T13:59:57.530Z,7.71
2022-12-15T14:02:28.945Z,7.67
2022-12-15T14:05:22.852Z,7.66
2022-12-15T14:07:55.181Z,7.66
2022-12-15T14:10:41.901Z,7.64
2022-12-15T14:13:35.152Z,7.61
2022-12-15T14:16:19.728Z,7.58
2022-12-15T14:19:16.281Z,7.52
2022-12-15T14:21:59.996Z,7.49
2022-12-15T14:24:41.156Z,7.45
2022-12-15T14:27:10.453Z,7.41
2022-12-15T14:29:39.355Z,7.38
2022-12-15T14:32:10.565Z,7.34
2022-12-15T14:34:42.088Z,7.31
2022-12-15T14:37:44.917Z,7.33
2022-12-15T14:40:23.645Z,7.26
2022-12-15T14:42:55.659Z,7.21
2022-12-15T14:45:31.465Z,7.18
2022-12-15T14:51:01.437Z,7.07
2022-12-15T14:53:38.089Z,7.03
2022-12-15T14:56:33.334Z,6.97
2022-12-15T14:59:17.296Z,6.91
2022-12-15T15:02:10.849Z,6.85
2022-12-15T15:03:06.627Z,8.66
2022-12-15T15:03:12.193Z,7.13
2022-12-15T15:04:41.416Z,6.80
2022-12-15T15:07:19.288Z,6.74
2022-12-15T15:09:48.400Z,6.67
2022-12-15T15:12:53.736Z,6.60
2022-12-15T15:15:27.193Z,6.53
2022-12-15T15:17:59.698Z,6.47
2022-12-15T15:20:30.569Z,6.40
2022-12-15T15:23:13.429Z,6.34
2022-12-15T15:26:05.260Z,6.27
2022-12-15T15:28:43.215Z,6.22
2022-12-15T15:31:41.695Z,6.18
2022-12-15T15:34:11.638Z,6.12
2022-12-15T15:36:44.310Z,6.06
2022-12-15T15:39:16.559Z,5.99
2022-12-15T15:41:46.715Z,5.93
2022-12-15T15:44:16.720Z,5.88
2022-12-15T15:46:57.173Z,5.84
2022-12-15T15:49:26.067Z,5.79
2022-12-15T15:51:56.796Z,5.73
2022-12-15T15:54:35.266Z,5.69
2022-12-15T15:57:03.997Z,5.64
2022-12-15T15:59:37.079Z,5.60
2022-12-15T16:02:11.736Z,5.57
2022-12-15T16:04:43.332Z,5.54
2022-12-15T16:07:28.819Z,5.51
2022-12-15T16:10:19.789Z,5.49
2022-12-15T16:12:55.274Z,5.47
2022-12-15T16:15:34.794Z,5.45
2022-12-15T16:18:04.546Z,5.40
2022-12-15T16:20:35.199Z,5.36
2022-12-15T16:23:16.532Z,5.32
2022-12-15T16:26:01.965Z,5.28
2022-12-15T16:28:32.244Z,5.27
2022-12-15T16:31:02.419Z,5.25
2022-12-15T16:33:31.504Z,5.16
2022-12-15T16:36:00.143Z,4.94
2022-12-15T16:38:33.169Z,4.87
2022-12-15T16:41:08.177Z,4.71
2022-12-15T16:43:41.611Z,4.52
2022-12-15T16:46:15.771Z,4.36
2022-12-15T16:48:44.568Z,4.18
2022-12-15T16:51:43.770Z,4.11
2022-12-15T16:54:24.504Z,4.13
2022-12-15T16:56:58.375Z,4.07
2022-12-15T16:59:36.068Z,4.01
2022-12-15T17:02:29.198Z,4.05
2022-12-15T17:04:58.280Z,4.05
2022-12-15T17:07:28.322Z,4.10
2022-12-15T17:09:57.057Z,4.17
2022-12-15T17:12:26.119Z,4.21
2022-12-15T17:14:54.785Z,4.26
2022-12-15T17:17:23.620Z,4.24
2022-12-15T17:20:27.270Z,4.31
2022-12-15T17:22:41.454Z,4.31
2022-12-15T17:26:01.632Z,4.30
2022-12-15T17:28:29.212Z,4.28
2022-12-15T17:31:19.035Z,4.34
2022-12-15T17:34:14.043Z,4.36
2022-12-15T17:37:13.340Z,4.37
2022-12-15T17:39:58.949Z,4.35
2022-12-15T17:42:51.506Z,4.40
2022-12-15T17:45:31.918Z,4.36
2022-12-15T17:48:00.894Z,4.43
2022-12-15T17:50:32.855Z,4.42
2022-12-15T17:53:06.861Z,4.31
2022-12-15T17:55:35.726Z,4.27
2022-12-15T17:58:18.835Z,4.17
2022-12-15T18:00:53.171Z,4.23
2022-12-15T18:03:26.241Z,4.26
2022-12-15T18:05:55.234Z,4.17
2022-12-15T18:08:27.177Z,4.09
2022-12-15T18:10:58.419Z,3.96
2022-12-15T18:13:35.448Z,3.93
2022-12-15T18:16:05.355Z,3.97
2022-12-15T18:18:35.361Z,3.92
2022-12-15T18:21:25.302Z,3.86
2022-12-15T18:23:54.092Z,3.79
2022-12-15T18:26:23.387Z,3.77
2022-12-15T18:28:58.083Z,3.72
2022-12-15T18:31:31.945Z,3.79
2022-12-15T18:34:16.702Z,3.80
2022-12-15T18:36:45.762Z,3.78
2022-12-15T18:39:21.043Z,3.84
2022-12-15T18:41:51.875Z,3.90
2022-12-15T18:44:31.628Z,4.00
2022-12-15T18:47:01.055Z,4.02
2022-12-15T18:49:30.503Z,4.07
2022-12-15T18:51:59.228Z,4.09
2022-12-15T18:54:28.971Z,4.13
2022-12-15T18:56:57.830Z,4.16
2022-12-15T18:59:27.997Z,4.25
2022-12-15T19:01:57.174Z,4.23
2022-12-15T19:04:26.096Z,4.30
2022-12-15T19:06:54.969Z,4.21
2022-12-15T19:09:23.591Z,4.27
2022-12-15T19:12:11.317Z,4.29
2022-12-15T19:14:44.315Z,4.25
2022-12-15T19:17:43.598Z,4.19
2022-12-15T19:20:39.115Z,4.15
2022-12-15T19:23:07.919Z,4.14
2022-12-15T19:25:37.962Z,4.18
2022-12-15T19:28:20.958Z,4.23
2022-12-15T19:30:50.536Z,4.17
2022-12-15T19:33:20.089Z,4.21
2022-12-15T19:35:51.901Z,4.20
2022-12-15T19:38:28.881Z,4.23
2022-12-15T19:41:00.325Z,4.21
2022-12-15T19:44:03.108Z,4.23
2022-12-15T19:46:43.530Z,4.27
2022-12-15T19:49:14.726Z,4.29
2022-12-15T19:51:43.633Z,4.29
2022-12-15T19:54:37.505Z,4.30
2022-12-15T19:57:15.532Z,4.36
2022-12-15T19:59:47.781Z,4.35
2022-12-15T20:02:21.566Z,4.36
2022-12-15T20:04:51.665Z,4.36
2022-12-15T20:07:30.766Z,4.31
2022-12-15T20:10:01.245Z,4.35
2022-12-15T20:12:30.623Z,4.35
2022-12-15T20:14:59.358Z,4.40
2022-12-15T20:17:28.421Z,4.38
2022-12-15T20:19:56.971Z,4.41
2022-12-15T20:22:25.727Z,4.43
2022-12-15T20:24:54.482Z,4.42
2022-12-15T20:27:23.024Z,4.39
2022-12-15T20:29:51.706Z,4.39
2022-12-15T20:32:21.654Z,4.40
2022-12-15T20:34:50.249Z,4.33
2022-12-15T20:37:29.840Z,4.29
2022-12-15T20:39:58.501Z,4.26
2022-12-15T20:42:27.137Z,4.21
2022-12-15T20:44:55.856Z,4.16
2022-12-15T20:47:26.940Z,4.12
2022-12-15T20:49:55.763Z,4.04
2022-12-15T20:52:27.046Z,3.98
2022-12-15T20:54:55.962Z,3.95
2022-12-15T20:57:24.764Z,3.91
2022-12-15T20:59:53.810Z,3.86
2022-12-15T21:02:24.447Z,3.76
2022-12-15T21:04:53.328Z,3.74
2022-12-15T21:07:21.868Z,3.73
2022-12-15T21:09:50.465Z,3.66
2022-12-15T21:12:26.594Z,3.67
2022-12-15T21:14:55.518Z,3.66
2022-12-15T21:17:26.219Z,3.65
2022-12-15T21:19:54.846Z,3.67
2022-12-15T21:22:27.388Z,3.66
2022-12-15T21:24:58.952Z,3.66
2022-12-15T21:27:27.693Z,3.66
2022-12-15T21:29:56.322Z,3.59
2022-12-15T21:32:24.988Z,3.58
2022-12-15T21:34:53.486Z,3.54
2022-12-15T21:37:31.129Z,3.48
2022-12-15T21:40:00.157Z,3.47
2022-12-15T21:42:36.806Z,3.44
2022-12-15T21:45:15.673Z,3.40
2022-12-15T21:48:03.099Z,3.33
2022-12-15T21:53:51.674Z,3.25
2022-12-15T21:56:21.537Z,3.17
2022-12-15T21:58:54.815Z,3.13
2022-12-15T22:01:30.860Z,3.11
2022-12-15T22:04:04.911Z,3.06
2022-12-15T22:06:33.502Z,2.98
2022-12-15T22:09:02.027Z,2.91
2022-12-15T22:11:32.519Z,2.87
2022-12-15T22:14:04.725Z,2.81
2022-12-15T22:16:33.302Z,2.76
2022-12-15T22:19:02.298Z,2.71
2022-12-15T22:21:31.594Z,2.68
2022-12-15T22:24:00.255Z,2.68
2022-12-15T22:26:31.790Z,2.69
2022-12-15T22:29:02.123Z,2.72
2022-12-15T22:31:30.757Z,2.72
2022-12-15T22:33:59.353Z,2.71
2022-12-15T22:36:27.954Z,2.67
2022-12-15T22:38:56.539Z,2.64
2022-12-15T22:41:25.175Z,2.61
2022-12-15T22:43:56.057Z,2.61
2022-12-15T22:46:25.176Z,2.62
2022-12-15T22:48:54.879Z,2.65
2022-12-15T22:51:23.532Z,2.64
2022-12-15T22:53:52.021Z,2.65
2022-12-15T22:56:37.229Z,2.57
2022-12-15T22:59:10.708Z,2.55
2022-12-15T23:01:39.498Z,2.58
2022-12-15T23:04:08.077Z,2.60
2022-12-15T23:06:36.918Z,2.63
2022-12-15T23:09:05.574Z,2.66
2022-12-15T23:11:40.081Z,2.51
2022-12-15T23:14:15.751Z,2.38
2022-12-15T23:16:46.567Z,2.30
2022-12-15T23:19:24.196Z,2.29
2022-12-15T23:21:52.961Z,2.21
2022-12-15T23:24:21.470Z,2.10
2022-12-15T23:26:49.986Z,2.15
2022-12-15T23:29:18.731Z,2.11
2022-12-15T23:31:47.587Z,2.02
2022-12-15T23:34:16.208Z,1.91
2022-12-15T23:36:45.717Z,1.92
2022-12-15T23:39:15.396Z,1.87
2022-12-15T23:41:43.925Z,1.85
2022-12-15T23:44:12.646Z,1.83
2022-12-15T23:46:42.391Z,1.79
2022-12-15T23:49:11.176Z,1.70
2022-12-15T23:51:39.729Z,1.68
2022-12-15T23:54:08.323Z,1.64
2022-12-15T23:56:39.664Z,1.66
2022-12-15T23:59:08.276Z,1.62
